createdAt,value
2018-04-08T00:00:15.968Z,12.90
2018-04-08T00:02:45.095Z,13.33
2018-04-08T00:05:13.482Z,13.83
2018-04-08T00:07:41.856Z,14.13
2018-04-08T00:10:10.241Z,13.70
2018-04-08T00:12:38.603Z,14.70
2018-04-08T00:15:06.955Z,13.80
2018-04-08T00:17:36.280Z,13.73
2018-04-08T00:20:04.635Z,13.67
2018-04-08T00:22:33.760Z,13.53
2018-04-08T00:25:02.119Z,14.20
2018-04-08T00:27:30.480Z,13.53
2018-04-08T00:29:58.830Z,12.63
2018-04-08T00:32:27.227Z,12.00
2018-04-08T00:34:55.768Z,12.60
2018-04-08T00:37:24.112Z,12.20
2018-04-08T00:39:53.285Z,11.70
2018-04-08T00:42:21.723Z,10.93
2018-04-08T00:44:50.112Z,11.37
2018-04-08T00:47:18.494Z,11.73
2018-04-08T00:49:46.844Z,12.47
2018-04-08T00:52:15.200Z,11.87
2018-04-08T00:54:43.564Z,13.10
2018-04-08T00:57:12.009Z,13.53
2018-04-08T00:59:40.374Z,13.67
2018-04-08T01:02:08.803Z,13.47
2018-04-08T01:04:38.008Z,13.57
2018-04-08T01:07:06.340Z,13.43
2018-04-08T01:09:34.700Z,13.27
2018-04-08T01:12:03.036Z,11.83
2018-04-08T01:14:31.400Z,11.37
2018-04-08T01:16:59.746Z,11.87
2018-04-08T01:19:28.316Z,11.93
2018-04-08T01:21:57.440Z,11.97
2018-04-08T01:24:25.835Z,10.77
2018-04-08T01:26:54.351Z,11.83
2018-04-08T01:29:22.646Z,11.40
2018-04-08T01:31:51.028Z,11.73
2018-04-08T01:34:19.438Z,12.07
2018-04-08T01:36:47.788Z,10.80
2018-04-08T01:39:16.226Z,11.50
2018-04-08T01:41:44.603Z,11.50
2018-04-08T01:44:12.944Z,12.67
2018-04-08T01:46:41.321Z,13.47
2018-04-08T01:49:09.706Z,13.33
2018-04-08T01:51:38.080Z,13.97
2018-04-08T01:54:06.469Z,13.20
2018-04-08T01:56:34.825Z,14.00
2018-04-08T01:59:03.242Z,12.93
2018-04-08T02:01:31.639Z,13.27
2018-04-08T02:04:00.085Z,13.03
2018-04-08T02:06:28.595Z,13.90
2018-04-08T02:08:56.950Z,14.13
2018-04-08T02:11:25.314Z,12.80
2018-04-08T02:13:54.643Z,13.50
2018-04-08T02:16:23.113Z,13.60
2018-04-08T02:18:51.474Z,13.20
2018-04-08T02:21:20.405Z,13.03
2018-04-08T02:23:48.751Z,12.10
2018-04-08T02:26:17.273Z,13.40
2018-04-08T02:28:45.704Z,12.30
2018-04-08T02:31:14.320Z,11.73
2018-04-08T02:33:42.695Z,10.80
2018-04-08T02:36:11.040Z,11.50
2018-04-08T02:38:40.216Z,11.97
2018-04-08T02:41:09.349Z,11.33
2018-04-08T02:43:37.771Z,11.30
2018-04-08T02:46:06.139Z,13.33
2018-04-08T02:48:34.518Z,12.70
2018-04-08T02:51:02.866Z,13.37
2018-04-08T02:53:31.365Z,12.90
2018-04-08T02:55:59.761Z,14.03
2018-04-08T02:58:28.107Z,13.23
2018-04-08T03:00:57.319Z,13.00
2018-04-08T03:03:25.719Z,12.23
2018-04-08T03:05:54.073Z,11.57
2018-04-08T03:08:22.516Z,11.80
2018-04-08T03:10:51.649Z,11.37
2018-04-08T03:13:19.991Z,11.33
2018-04-08T03:15:49.125Z,11.33
2018-04-08T03:18:17.499Z,10.70
2018-04-08T03:20:45.988Z,12.10
2018-04-08T03:23:14.349Z,9.60
2018-04-08T03:25:42.695Z,10.47
2018-04-08T03:28:11.061Z,12.10
2018-04-08T03:30:39.428Z,13.53
2018-04-08T03:33:07.797Z,13.20
2018-04-08T03:35:36.152Z,12.53
2018-04-08T03:38:04.604Z,12.60
2018-04-08T03:40:33.769Z,12.10
2018-04-08T03:43:02.320Z,11.80
2018-04-08T03:45:30.672Z,11.53
2018-04-08T03:47:59.040Z,10.53
2018-04-08T03:50:27.386Z,10.30
2018-04-08T03:52:55.743Z,11.13
2018-04-08T03:55:24.104Z,10.40
2018-04-08T03:57:52.537Z,10.57
2018-04-08T04:00:21.436Z,11.83
2018-04-08T04:02:49.780Z,11.70
2018-04-08T04:05:18.237Z,12.53
2018-04-08T04:07:46.579Z,13.27
2018-04-08T04:10:14.931Z,12.17
2018-04-08T04:12:43.287Z,11.83
2018-04-08T04:15:11.664Z,13.30
2018-04-08T04:17:40.048Z,13.63
2018-04-08T04:20:20.480Z,13.03
2018-04-08T04:23:01.500Z,14.57
2018-04-08T04:28:32.442Z,14.03
2018-04-08T04:31:00.796Z,14.33
2018-04-08T04:33:29.900Z,12.50
2018-04-08T04:35:58.262Z,13.10
2018-04-08T04:38:27.351Z,13.00
2018-04-08T04:40:56.609Z,13.13
2018-04-08T04:43:25.047Z,13.80
2018-04-08T04:45:54.143Z,13.53
2018-04-08T04:48:23.347Z,13.53
2018-04-08T04:50:52.476Z,13.10
2018-04-08T04:53:20.815Z,14.00
2018-04-08T04:55:49.951Z,12.40
2018-04-08T04:58:18.293Z,14.17
2018-04-08T05:00:47.392Z,13.70
2018-04-08T05:03:15.764Z,13.67
2018-04-08T05:05:44.895Z,13.60
2018-04-08T05:08:13.384Z,13.30
2018-04-08T05:10:41.718Z,13.60
2018-04-08T05:13:10.821Z,12.63
2018-04-08T05:15:39.961Z,13.33
2018-04-08T05:18:08.384Z,13.07
2018-04-08T05:20:36.813Z,13.63
2018-04-08T05:23:05.140Z,13.20
2018-04-08T05:25:33.645Z,13.07
2018-04-08T05:28:01.942Z,13.27
2018-04-08T05:30:30.333Z,13.20
2018-04-08T05:32:58.699Z,13.47
2018-04-08T05:35:27.065Z,12.60
2018-04-08T05:37:55.480Z,12.73
2018-04-08T05:40:23.985Z,13.53
2018-04-08T05:42:52.357Z,11.77
2018-04-08T05:45:20.700Z,13.77
2018-04-08T05:47:49.077Z,13.33
2018-04-08T05:50:17.473Z,12.97
2018-04-08T05:52:45.844Z,12.63
2018-04-08T05:55:14.179Z,12.53
2018-04-08T05:57:42.525Z,12.50
2018-04-08T06:00:10.976Z,12.80
2018-04-08T06:02:39.334Z,12.70
2018-04-08T06:05:07.677Z,11.70
2018-04-08T06:07:36.036Z,13.07
2018-04-08T06:10:04.418Z,12.53
2018-04-08T06:12:32.784Z,13.00
2018-04-08T06:15:01.154Z,13.03
2018-04-08T06:17:29.535Z,12.20
2018-04-08T06:19:57.899Z,13.67
2018-04-08T06:22:26.271Z,13.17
2018-04-08T06:24:54.689Z,12.87
2018-04-08T06:27:23.769Z,13.07
2018-04-08T06:29:52.154Z,13.27
2018-04-08T06:32:20.511Z,12.63
2018-04-08T06:34:48.875Z,12.40
2018-04-08T06:37:17.979Z,12.23
2018-04-08T06:39:46.346Z,11.40
2018-04-08T06:42:15.619Z,10.60
2018-04-08T06:44:44.035Z,10.40
2018-04-08T06:47:12.508Z,10.33
2018-04-08T06:49:41.648Z,10.73
2018-04-08T06:52:10.049Z,10.70
2018-04-08T06:54:38.393Z,10.83
2018-04-08T06:57:06.784Z,10.50
2018-04-08T06:59:35.143Z,10.03
2018-04-08T07:02:03.541Z,10.43
2018-04-08T07:04:31.901Z,9.87
2018-04-08T07:07:00.239Z,10.13
2018-04-08T07:09:28.680Z,10.13
2018-04-08T07:11:57.178Z,8.90
2018-04-08T07:14:25.533Z,9.33
2018-04-08T07:16:53.894Z,9.53
2018-04-08T07:19:23.013Z,9.73
2018-04-08T07:21:51.356Z,9.23
2018-04-08T07:24:20.484Z,9.47
2018-04-08T07:26:48.848Z,8.73
2018-04-08T07:29:17.224Z,9.60
2018-04-08T07:31:45.577Z,9.30
2018-04-08T07:34:14.116Z,9.77
2018-04-08T07:36:42.453Z,9.83
2018-04-08T07:39:11.572Z,9.40
2018-04-08T07:41:39.937Z,10.40
2018-04-08T07:44:09.113Z,10.13
2018-04-08T07:46:37.428Z,9.37
2018-04-08T07:49:05.961Z,10.03
2018-04-08T07:51:34.381Z,10.13
2018-04-08T07:54:03.485Z,10.17
2018-04-08T07:56:31.909Z,9.73
2018-04-08T07:59:00.280Z,10.50
2018-04-08T08:01:29.542Z,10.37
2018-04-08T08:03:57.900Z,9.50
2018-04-08T08:06:27.021Z,9.47
2018-04-08T08:08:55.390Z,8.77
2018-04-08T08:11:23.726Z,8.83
2018-04-08T08:13:52.085Z,8.47
2018-04-08T08:16:20.499Z,8.50
2018-04-08T08:18:49.632Z,7.97
2018-04-08T08:21:17.984Z,9.10
2018-04-08T08:23:47.100Z,8.23
2018-04-08T08:26:15.450Z,8.17
2018-04-08T08:28:43.888Z,8.87
2018-04-08T08:31:12.345Z,8.63
2018-04-08T08:33:40.675Z,8.60
2018-04-08T08:36:09.119Z,8.80
2018-04-08T08:38:37.505Z,11.33
2018-04-08T08:41:05.875Z,12.27
2018-04-08T08:43:34.298Z,8.53
2018-04-08T08:46:02.789Z,9.20
2018-04-08T08:48:31.150Z,9.20
2018-04-08T08:50:59.616Z,8.27
2018-04-08T08:53:27.976Z,9.10
2018-04-08T08:55:56.821Z,8.97
2018-04-08T08:58:25.178Z,10.03
2018-04-08T09:00:53.518Z,9.63
2018-04-08T09:03:21.872Z,9.53
2018-04-08T09:05:51.034Z,9.40
2018-04-08T09:08:19.411Z,9.97
2018-04-08T09:10:47.761Z,9.77
2018-04-08T09:13:16.294Z,9.80
2018-04-08T09:15:44.794Z,9.40
2018-04-08T09:18:13.168Z,10.10
2018-04-08T09:20:43.107Z,10.90
2018-04-08T09:23:17.161Z,10.70
2018-04-08T09:25:46.050Z,9.67
2018-04-08T09:28:14.434Z,10.13
2018-04-08T09:30:42.775Z,10.07
2018-04-08T09:33:11.133Z,11.27
2018-04-08T09:35:39.509Z,10.50
2018-04-08T09:38:07.897Z,10.83
2018-04-08T09:40:36.248Z,10.88
2018-04-08T09:43:04.680Z,11.02
2018-04-08T09:45:33.094Z,10.63
2018-04-08T09:48:01.539Z,10.75
2018-04-08T09:50:30.022Z,10.57
2018-04-08T09:52:58.396Z,11.40
2018-04-08T09:55:26.752Z,11.45
2018-04-08T10:03:47.810Z,12.67
2018-04-08T10:06:16.211Z,13.88
2018-04-08T10:08:44.577Z,12.18
2018-04-08T10:11:12.934Z,13.15
2018-04-08T10:13:41.351Z,12.50
2018-04-08T10:16:09.897Z,11.98
2018-04-08T10:18:38.233Z,13.52
2018-04-08T10:21:06.597Z,12.82
2018-04-08T10:23:34.948Z,12.63
2018-04-08T10:26:03.356Z,13.05
2018-04-08T10:28:31.716Z,11.73
2018-04-08T10:31:00.122Z,11.95
2018-04-08T10:33:28.650Z,12.68
2018-04-08T10:35:57.884Z,12.85
2018-04-08T10:38:26.245Z,13.25
2018-04-08T10:40:54.659Z,13.30
2018-04-08T10:43:23.121Z,14.18
2018-04-08T10:45:51.479Z,17.87
2018-04-08T10:48:19.858Z,14.75
2018-04-08T10:50:48.972Z,13.80
2018-04-08T10:53:17.350Z,15.52
2018-04-08T10:55:45.869Z,17.05
2018-04-08T10:58:14.276Z,16.45
2018-04-08T11:00:42.604Z,14.13
2018-04-08T11:03:10.983Z,14.13
2018-04-08T11:05:39.364Z,14.32
2018-04-08T11:08:07.744Z,14.07
2018-04-08T11:10:36.092Z,13.80
2018-04-08T11:13:04.450Z,14.15
2018-04-08T11:15:32.888Z,14.73
2018-04-08T11:18:01.259Z,15.30
2018-04-08T11:20:29.620Z,14.68
2018-04-08T11:22:57.963Z,14.50
2018-04-08T11:25:26.328Z,14.77
2018-04-08T11:27:54.777Z,15.68
2018-04-08T11:30:23.152Z,20.73
2018-04-08T11:32:51.547Z,15.73
2018-04-08T11:35:19.918Z,15.18
2018-04-08T11:37:48.284Z,14.27
2018-04-08T11:40:16.666Z,12.95
2018-04-08T11:42:45.256Z,14.18
2018-04-08T11:45:13.626Z,13.75
2018-04-08T11:47:42.188Z,15.20
2018-04-08T11:50:11.370Z,14.55
2018-04-08T11:52:39.755Z,13.95
2018-04-08T11:55:08.873Z,14.43
2018-04-08T11:57:37.286Z,14.48
2018-04-08T12:00:05.639Z,14.40
2018-04-08T12:02:33.989Z,14.23
2018-04-08T12:05:03.139Z,14.55
2018-04-08T12:07:31.496Z,16.80
2018-04-08T12:09:59.874Z,16.52
2018-04-08T12:12:28.266Z,14.07
2018-04-08T12:14:56.689Z,14.65
2018-04-08T12:17:25.063Z,13.60
2018-04-08T12:19:53.521Z,13.70
2018-04-08T12:22:21.923Z,12.93
2018-04-08T12:24:50.462Z,15.60
2018-04-08T12:27:18.820Z,15.15
2018-04-08T12:29:47.197Z,16.95
2018-04-08T12:32:15.573Z,15.65
2018-04-08T12:34:44.717Z,13.30
2018-04-08T12:37:13.087Z,14.32
2018-04-08T12:39:41.511Z,15.30
2018-04-08T12:42:09.892Z,14.20
2018-04-08T12:44:39.789Z,13.82
2018-04-08T12:47:08.132Z,14.32
2018-04-08T12:49:36.513Z,13.80
2018-04-08T12:52:04.917Z,13.93
2018-04-08T12:54:33.292Z,15.02
2018-04-08T12:57:01.650Z,13.98
2018-04-08T12:59:30.059Z,13.90
2018-04-08T13:01:58.530Z,13.18
2018-04-08T13:04:26.914Z,13.52
2018-04-08T13:06:55.280Z,15.95
2018-04-08T13:09:23.779Z,14.77
2018-04-08T13:11:52.181Z,13.43
2018-04-08T13:14:20.534Z,14.32
2018-04-08T13:16:49.017Z,13.77
2018-04-08T13:19:18.204Z,13.50
2018-04-08T13:21:46.693Z,14.35
2018-04-08T13:24:15.056Z,18.05
2018-04-08T13:26:43.473Z,17.62
2018-04-08T13:29:11.978Z,13.02
2018-04-08T13:31:40.420Z,14.02
2018-04-08T13:34:08.932Z,11.82
2018-04-08T13:36:38.143Z,13.90
2018-04-08T13:39:07.796Z,14.45
2018-04-08T13:41:36.164Z,13.65
2018-04-08T13:44:04.513Z,14.98
2018-04-08T13:46:33.673Z,14.48
2018-04-08T13:49:03.277Z,16.40
2018-04-08T13:51:32.428Z,14.25
2018-04-08T13:54:00.943Z,16.10
2018-04-08T13:56:29.275Z,15.63
2018-04-08T13:58:58.448Z,14.63
2018-04-08T14:01:27.094Z,14.05
2018-04-08T14:03:55.539Z,15.65
2018-04-08T14:06:23.886Z,16.02
2018-04-08T14:08:52.251Z,15.55
2018-04-08T14:11:20.644Z,16.60
2018-04-08T14:13:49.890Z,15.50
2018-04-08T14:16:18.295Z,14.35
2018-04-08T14:18:46.643Z,18.65
2018-04-08T14:21:15.024Z,18.62
2018-04-08T14:23:43.367Z,15.98
2018-04-08T14:26:11.883Z,15.07
2018-04-08T14:28:40.351Z,15.95
2018-04-08T14:31:08.802Z,15.10
2018-04-08T14:33:37.155Z,15.90
2018-04-08T14:36:05.529Z,15.10
2018-04-08T14:38:34.027Z,15.73
2018-04-08T14:41:02.421Z,16.12
2018-04-08T14:43:30.809Z,17.45
2018-04-08T14:45:59.203Z,20.05
2018-04-08T14:48:27.549Z,15.82
2018-04-08T14:50:55.913Z,15.02
2018-04-08T14:53:24.312Z,15.82
2018-04-08T14:55:52.787Z,14.82
2018-04-08T14:58:21.203Z,26.00
2018-04-08T15:00:50.346Z,17.12
2018-04-08T15:03:18.749Z,16.58
2018-04-08T15:05:47.140Z,17.33
2018-04-08T15:08:15.534Z,19.10
2018-04-08T15:10:43.989Z,18.40
2018-04-08T15:13:12.491Z,20.12
2018-04-08T15:15:40.848Z,19.15
2018-04-08T15:18:09.452Z,19.75
2018-04-08T15:20:37.981Z,18.98
2018-04-08T15:23:07.137Z,18.23
2018-04-08T15:25:35.606Z,17.83
2018-04-08T15:28:04.195Z,23.05
2018-04-08T15:30:32.856Z,18.40
2018-04-08T15:33:01.962Z,17.85
2018-04-08T15:35:30.341Z,25.85
2018-04-08T15:37:58.797Z,19.15
2018-04-08T15:40:27.275Z,17.83
2018-04-08T15:42:56.628Z,19.98
2018-04-08T15:45:25.154Z,19.80
2018-04-08T15:47:53.586Z,20.67
2018-04-08T15:50:22.102Z,19.73
2018-04-08T15:52:51.301Z,20.60
2018-04-08T15:55:20.469Z,22.13
2018-04-08T15:57:48.973Z,20.15
2018-04-08T16:00:17.362Z,21.60
2018-04-08T16:02:45.833Z,21.52
2018-04-08T16:05:14.186Z,20.60
2018-04-08T16:07:42.548Z,20.73
2018-04-08T16:10:10.984Z,20.35
2018-04-08T16:12:40.289Z,20.17
2018-04-08T16:15:08.670Z,20.42
2018-04-08T16:17:37.117Z,25.05
2018-04-08T16:20:05.499Z,19.95
2018-04-08T16:22:34.248Z,20.45
2018-04-08T16:25:02.668Z,23.02
2018-04-08T16:27:31.025Z,24.05
2018-04-08T16:29:59.373Z,23.83
2018-04-08T16:32:27.748Z,29.27
2018-04-08T16:34:56.099Z,20.88
2018-04-08T16:37:25.388Z,19.35
2018-04-08T16:39:53.938Z,19.55
2018-04-08T16:42:22.320Z,18.75
2018-04-08T16:44:50.684Z,19.50
2018-04-08T16:47:19.049Z,20.48
2018-04-08T16:49:47.425Z,19.83
2018-04-08T16:52:15.776Z,20.02
2018-04-08T16:54:45.715Z,20.17
2018-04-08T16:57:14.085Z,20.08
2018-04-08T16:59:43.346Z,20.52
2018-04-08T17:02:11.844Z,19.12
2018-04-08T17:04:40.305Z,24.33
2018-04-08T17:07:08.645Z,24.08
2018-04-08T17:09:37.008Z,20.98
2018-04-08T17:12:05.369Z,21.52
2018-04-08T17:14:34.487Z,20.98
2018-04-08T17:17:02.905Z,20.42
2018-04-08T17:19:31.248Z,20.08
2018-04-08T17:22:00.115Z,20.60
2018-04-08T17:24:29.441Z,21.92
2018-04-08T17:26:57.817Z,20.58
2018-04-08T17:29:26.361Z,19.75
2018-04-08T17:31:54.753Z,22.65
2018-04-08T17:34:23.908Z,23.98
2018-04-08T17:36:52.595Z,20.45
2018-04-08T17:39:20.974Z,20.90
2018-04-08T17:41:49.317Z,21.50
2018-04-08T17:44:18.394Z,21.77
2018-04-08T17:46:47.542Z,21.90
2018-04-08T17:49:15.962Z,20.37
2018-04-08T17:51:44.781Z,17.98
2018-04-08T17:54:13.306Z,20.70
2018-04-08T17:56:41.689Z,21.33
2018-04-08T17:59:10.266Z,19.87
2018-04-08T18:01:38.682Z,22.63
2018-04-08T18:04:07.229Z,24.10
2018-04-08T18:06:35.597Z,22.17
2018-04-08T18:09:04.034Z,24.70
2018-04-08T18:11:33.174Z,22.60
2018-04-08T18:14:01.539Z,21.53
2018-04-08T18:16:30.049Z,21.47
2018-04-08T18:18:58.459Z,22.77
2018-04-08T18:21:27.715Z,22.27
2018-04-08T18:23:56.076Z,21.90
2018-04-08T18:26:24.794Z,22.10
2018-04-08T18:28:53.186Z,22.00
2018-04-08T18:31:21.604Z,22.37
2018-04-08T18:33:51.093Z,24.43
2018-04-08T18:36:19.429Z,23.93
2018-04-08T18:38:47.798Z,22.70
2018-04-08T18:41:16.403Z,23.53
2018-04-08T18:43:45.287Z,21.10
2018-04-08T18:46:13.690Z,22.10
2018-04-08T18:48:43.611Z,22.67
2018-04-08T18:51:11.973Z,22.10
2018-04-08T18:53:40.334Z,21.27
2018-04-08T18:56:09.016Z,23.13
2018-04-08T18:58:37.459Z,22.27
2018-04-08T19:01:06.020Z,21.27
2018-04-08T19:03:34.375Z,24.97
2018-04-08T19:06:02.730Z,21.03
2018-04-08T19:08:31.140Z,21.90
2018-04-08T19:10:59.521Z,20.97
2018-04-08T19:13:27.930Z,21.03
2018-04-08T19:15:56.300Z,22.50
2018-04-08T19:18:24.757Z,20.73
2018-04-08T19:20:53.177Z,20.17
2018-04-08T19:23:22.589Z,21.53
2018-04-08T19:25:51.920Z,21.43
2018-04-08T19:28:20.346Z,20.13
2018-04-08T19:30:48.845Z,20.37
2018-04-08T19:33:18.007Z,20.83
2018-04-08T19:35:46.420Z,21.83
2018-04-08T19:38:14.836Z,21.37
2018-04-08T19:40:43.922Z,21.47
2018-04-08T19:43:12.299Z,22.80
2018-04-08T19:45:40.700Z,22.27
2018-04-08T19:48:09.073Z,24.37
2018-04-08T19:50:37.909Z,22.27
2018-04-08T19:53:06.407Z,24.07
2018-04-08T19:55:34.831Z,23.90
2018-04-08T19:58:03.849Z,22.83
2018-04-08T20:00:32.538Z,23.80
2018-04-08T20:03:01.894Z,24.37
2018-04-08T20:05:30.437Z,24.73
2018-04-08T20:07:58.816Z,24.77
2018-04-08T20:10:27.398Z,26.10
2018-04-08T20:12:56.171Z,28.87
2018-04-08T20:15:24.688Z,25.47
2018-04-08T20:17:53.097Z,26.67
2018-04-08T20:20:22.460Z,27.73
2018-04-08T20:22:51.047Z,26.77
2018-04-08T20:25:19.430Z,27.33
2018-04-08T20:27:48.604Z,20.43
2018-04-08T20:30:18.289Z,27.87
2018-04-08T20:32:46.805Z,41.07
2018-04-08T20:35:15.743Z,28.80
2018-04-08T20:37:44.120Z,28.63
2018-04-08T20:40:12.523Z,29.20
2018-04-08T20:42:41.033Z,28.87
2018-04-08T20:45:09.410Z,37.43
2018-04-08T20:47:37.830Z,30.77
2018-04-08T20:50:07.020Z,28.33
2018-04-08T20:52:35.363Z,30.50
2018-04-08T20:55:03.720Z,29.40
2018-04-08T20:57:32.094Z,28.67
2018-04-08T21:00:00.472Z,29.13
2018-04-08T21:02:28.878Z,32.03
2018-04-08T21:04:57.242Z,30.30
2018-04-08T21:07:25.795Z,31.60
2018-04-08T21:09:54.192Z,32.30
2018-04-08T21:12:22.574Z,31.23
2018-04-08T21:14:50.970Z,30.10
2018-04-08T21:17:19.611Z,31.47
2018-04-08T21:19:48.818Z,30.70
2018-04-08T21:22:17.200Z,31.57
2018-04-08T21:24:45.599Z,30.10
2018-04-08T21:27:13.985Z,30.83
2018-04-08T21:29:42.423Z,31.50
2018-04-08T21:32:10.773Z,30.53
2018-04-08T21:34:39.330Z,31.53
2018-04-08T21:37:07.702Z,31.17
2018-04-08T21:39:36.112Z,30.57
2018-04-08T21:42:04.490Z,32.33
2018-04-08T21:44:32.846Z,33.30
2018-04-08T21:47:01.234Z,31.87
2018-04-08T21:49:29.681Z,32.83
2018-04-08T21:51:58.028Z,31.27
2018-04-08T21:54:26.505Z,32.13
2018-04-08T21:56:54.865Z,30.27
2018-04-08T21:59:23.226Z,32.10
2018-04-08T22:01:51.593Z,31.77
2018-04-08T22:04:20.139Z,32.70
2018-04-08T22:06:48.506Z,32.47
2018-04-08T22:09:16.860Z,32.47
2018-04-08T22:11:45.240Z,32.97
2018-04-08T22:14:13.774Z,32.60
2018-04-08T22:16:42.973Z,32.90
2018-04-08T22:19:12.089Z,32.37
2018-04-08T22:21:40.497Z,33.93
2018-04-08T22:24:09.003Z,33.10
2018-04-08T22:26:37.405Z,33.20
2018-04-08T22:29:05.776Z,31.87
2018-04-08T22:31:34.162Z,32.00
2018-04-08T22:34:02.576Z,31.73
2018-04-08T22:36:30.995Z,32.03
2018-04-08T22:38:59.348Z,31.47
2018-04-08T22:41:27.754Z,33.00
2018-04-08T22:43:56.383Z,32.40
2018-04-08T22:46:24.742Z,31.23
2018-04-08T22:48:53.922Z,32.37
2018-04-08T22:51:22.303Z,32.23
2018-04-08T22:53:50.709Z,34.53
2018-04-08T22:56:19.137Z,32.97
2018-04-08T22:58:47.505Z,33.10
2018-04-08T23:01:15.986Z,34.43
2018-04-08T23:03:44.388Z,33.00
2018-04-08T23:06:12.774Z,31.27
2018-04-08T23:08:42.046Z,31.60
2018-04-08T23:11:10.865Z,32.73
2018-04-08T23:13:39.620Z,33.23
2018-04-08T23:16:08.546Z,34.37
2018-04-08T23:18:37.018Z,33.07
2018-04-08T23:21:05.533Z,30.97
2018-04-08T23:23:34.347Z,32.40
2018-04-08T23:26:03.754Z,33.00
2018-04-08T23:28:32.680Z,33.20
2018-04-08T23:31:01.059Z,33.30
2018-04-08T23:33:29.724Z,33.13
2018-04-08T23:35:58.112Z,32.97
2018-04-08T23:38:27.255Z,33.17
2018-04-08T23:40:55.629Z,31.53
2018-04-08T23:43:24.104Z,32.63
2018-04-08T23:45:52.840Z,31.60
2018-04-08T23:48:21.377Z,34.10
2018-04-08T23:50:50.488Z,34.00
2018-04-08T23:53:19.619Z,33.60
2018-04-08T23:55:48.267Z,32.77
2018-04-08T23:58:17.004Z,34.40
